Nearby METAR Reports

 

KFNL - Ft Collins/Lovel, Colorado, USA
Distance from station: NW 10mi, 16km
Updated: Sun, 15-Jul-2018 9:56pm MDT
Clear
Clear
 Wind from SSE
Wind: SSE 6 mph , 9 km/h
Temperature: 61°F , 16°C
Dew Point: 59°F , 15°C
Humidity: 94%
Barometer: 30.28 inHg , 1025.4 hPa
Clouds: Clear
Visibility: 10 miles , 16 km
2018/07/16 03:56 KFNL 160356Z AUTO 16005KT 10SM CLR 16/15 A3028 RMK AO2 SLP207 P0001 T01610150
KGXY - Greeley/Weld, Colorado, USA
Distance from station: ENE 14mi, 23km
Updated: Sun, 15-Jul-2018 9:56pm MDT
Clear
Clear
 Wind from calm
Wind: Calm
Temperature: 61°F , 16°C
Dew Point: 59°F , 15°C
Humidity: 94%
Barometer: 30.28 inHg , 1025.4 hPa
Clouds: Clear
Visibility: 10 miles , 16 km
2018/07/16 03:56 KGXY 160356Z AUTO 00000KT 10SM CLR 16/15 A3028 RMK AO2 SLP222 T01610150
 
KLMO - Longmont/Vbrand, Colorado, USA
Distance from station: SW 20mi, 32km
Updated: Sun, 15-Jul-2018 10:15pm MDT
Clear
Clear
 Wind from calm
Wind: Calm
Temperature: 63°F , 17°C
Dew Point: 61°F , 16°C
Humidity: 94%
Barometer: 30.30 inHg , 1026.1 hPa
Clouds: Clear
Visibility: 7 miles , 11 km
2018/07/16 04:15 KLMO 160415Z AUTO 00000KT 7SM CLR 17/16 A3030 RMK AO2 T01670155
KEIK - Erie Muni, Colorado, USA
Distance from station: SSW 25mi, 40km
Updated: Sun, 15-Jul-2018 10:18pm MDT
Clear
Clear
 Wind from calm
Wind: Calm
Temperature: 61°F , 16°C
Dew Point: 59°F , 15°C
Humidity: 94%
Barometer: 30.33 inHg , 1027.1 hPa
Clouds: Clear
Visibility: 10 miles , 16 km
2018/07/16 04:18 KEIK 160418Z AUTO 00000KT 10SM CLR 16/15 A3033 RMK AO2 T01580150
 
KBDU - Boulder Muni, Colorado, USA
Distance from station: SW 29mi, 47km
Updated: Sun, 15-Jul-2018 10:12pm MDT
Clear
Clear
 Wind from calm
Wind: Calm
Temperature: 59°F , 15°C
Dew Point: 59°F , 15°C
Humidity: 100%
Barometer: 30.29 inHg , 1025.7 hPa
Clouds: Clear
Visibility: 7 miles , 11 km
2018/07/16 04:12 KBDU 160412Z AUTO 00000KT 7SM CLR 15/15 A3029 RMK AO2
KBJC - Broomfield/Jeffc, Colorado, USA
Distance from station: SSW 33mi, 54km
Updated: Sun, 15-Jul-2018 10:12pm MDT
Clear
Clear
 Wind from SSE
Wind: SSE 3 mph , 6 km/h
Temperature: 61°F , 16°C
Dew Point: 59°F , 15°C
Humidity: 94%
Barometer: 30.31 inHg , 1026.4 hPa
Clouds: Clear
Visibility: 10 miles , 16 km
2018/07/16 04:12 KBJC 160412Z AUTO 16003KT 10SM CLR 16/15 A3031 RMK AO2
 
KDEN - Denver (dia), Colorado, USA
Distance from station: SSE 37mi, 59km
Updated: Sun, 15-Jul-2018 9:53pm MDT
Partly cloudy
Partly cloudy
 Wind from S
Wind: S 5 mph , 7 km/h
Temperature: 63°F , 17°C
Dew Point: 61°F , 16°C
Humidity: 94%
Barometer: 30.30 inHg , 1026.1 hPa
Clouds: Partly cloudy
Visibility: 10 miles , 16 km
Cloud details: Few Clouds 2000 ft
Few Clouds 6000 ft
Partly cloudy 10000 ft
2018/07/16 03:53 KDEN 160353Z 18004KT 10SM FEW020 FEW060 SCT100 17/16 A3030 RMK AO2 SLP189 T01670156 $
KFTG - Denver F. Range, Colorado, USA
Distance from station: SSE 43mi, 69km
Updated: Sun, 15-Jul-2018 10:12pm MDT
Clear
Clear
 Wind from S
Wind: S 3 mph , 6 km/h
Temperature: 64°F , 18°C
Dew Point: 63°F , 17°C
Humidity: 94%
Barometer: 30.31 inHg , 1026.4 hPa
Clouds: Clear
Visibility: 10 miles , 16 km
2018/07/16 04:12 KFTG 160412Z AUTO 17003KT 10SM CLR 18/17 A3031 RMK AO2 T01810174
 
KBKF - Buckley Angb/Den, Colorado, USA
Distance from station: S 44mi, 71km
Updated: Sun, 15-Jul-2018 9:58pm MDT
Mostly cloudy
Mostly cloudy
 Wind from SW
Wind: SW 3 mph , 6 km/h
Temperature: 63°F , 17°C
Dew Point: 63°F , 17°C
Humidity: 100%
Barometer: 30.32 inHg , 1026.8 hPa
Clouds: Mostly cloudy
Visibility: 10 miles , 16 km
Cloud details: Few Clouds 1500 ft
Partly cloudy 10000 ft
Mostly cloudy 22000 ft
2018/07/16 03:58 KBKF 160358Z 22003KT 10SM FEW015 SCT100 BKN220 17/17 A3032 RMK AO2A SLP202 T01660166
KCAG - Craig, Colorado, USA
Distance from station: ESE 227mi, 365km
Updated: Sun, 15-Jul-2018 9:53pm MDT
Clear
Clear
 Wind from E
Wind: E 5 mph , 7 km/h
Temperature: 72°F , 22°C
Dew Point: 46°F , 8°C
Humidity: 41%
Barometer: 30.23 inHg , 1023.7 hPa
Clouds: Clear
Visibility: 10 miles , 16 km
2018/07/16 03:53 KCAG 160353Z AUTO 08004KT 10SM CLR 22/08 A3023 RMK AO2 SLP154 T02220083
 
KHDN - Hayden/Yampa, Colorado, USA
Distance from station: E 211mi, 339km
Updated: Sun, 15-Jul-2018 9:56pm MDT
Clear
Clear
 Wind from ESE
Wind: ESE 9 mph , 15 km/h
Temperature: 68°F , 20°C
Dew Point: 48°F , 9°C
Humidity: 49%
Barometer: 30.28 inHg , 1025.4 hPa
Clouds: Clear
Visibility: 10 miles , 16 km
2018/07/16 03:56 KHDN 160356Z AUTO 12008KT 10SM CLR 20/09 A3028 RMK AO2 SLP170 T02000089
KSBS - Steamboat Spring, Colorado, USA
Distance from station: E 186mi, 299km
Updated: Sun, 15-Jul-2018 10:15pm MDT
Clear
Clear
 Wind from calm
Wind: Calm
Temperature: 68°F , 20°C
Dew Point: 48°F , 9°C
Humidity: 49%
Barometer: 30.31 inHg , 1026.4 hPa
Clouds: Clear
Visibility: 10 miles , 16 km
2018/07/16 04:15 KSBS 160415Z AUTO 00000KT 10SM CLR 20/09 A3031 RMK AO1 T02040089
 
KDWX - Dixon, Wyoming, USA
Distance from station: N 278mi, 447km
Updated: Sun, 15-Jul-2018 10:15pm MDT
Clear
Clear
 Wind from ENE
Wind: ENE 9 mph , 15 km/h
Temperature: 70°F , 21°C
Dew Point: 45°F , 7°C
Humidity: 40%
Barometer: 30.28 inHg , 1025.4 hPa
Clouds: Clear
Visibility: 10 miles , 16 km
2018/07/16 04:15 KDWX 160415Z AUTO 06008KT 10SM CLR 21/07 A3028 RMK AO2 T02090071
KEEO - Meeker, Colorado, USA
Distance from station: SSW 269mi, 433km
Updated: Sun, 15-Jul-2018 9:53pm MDT
Clear
Clear
 Wind from calm
Wind: Calm
Temperature: 70°F , 21°C
Dew Point: 45°F , 7°C
Humidity: 40%
Barometer: 30.24 inHg , 1024 hPa
Clouds: Clear
Visibility: 10 miles , 16 km
2018/07/16 03:53 KEEO 160353Z AUTO 00000KT 10SM CLR 21/07 A3024 RMK AO2 SLP149 T02110072